sensor_id;sensor_type;location;lat;lon;timestamp;P1;durP1;ratioP1;P2;durP2;ratioP2
77076;SDS011;66003;52.286;104.306;2023-07-30T00:02:01;8.18;;;4.28;;
77076;SDS011;66003;52.286;104.306;2023-07-30T00:04:27;7.72;;;4.15;;
77076;SDS011;66003;52.286;104.306;2023-07-30T00:06:53;6.70;;;4.03;;
77076;SDS011;66003;52.286;104.306;2023-07-30T00:09:19;6.43;;;4.32;;
77076;SDS011;66003;52.286;104.306;2023-07-30T00:11:45;8.23;;;4.28;;
77076;SDS011;66003;52.286;104.306;2023-07-30T00:14:12;7.18;;;4.70;;
77076;SDS011;66003;52.286;104.306;2023-07-30T00:16:38;6.22;;;4.43;;
77076;SDS011;66003;52.286;104.306;2023-07-30T00:19:04;6.93;;;4.60;;
77076;SDS011;66003;52.286;104.306;2023-07-30T00:21:30;8.60;;;5.75;;
77076;SDS011;66003;52.286;104.306;2023-07-30T00:23:56;8.70;;;4.75;;
77076;SDS011;66003;52.286;104.306;2023-07-30T00:26:23;9.15;;;5.00;;
77076;SDS011;66003;52.286;104.306;2023-07-30T00:28:52;7.45;;;5.10;;
77076;SDS011;66003;52.286;104.306;2023-07-30T00:31:18;11.35;;;5.93;;
77076;SDS011;66003;52.286;104.306;2023-07-30T00:33:44;9.80;;;8.45;;
77076;SDS011;66003;52.286;104.306;2023-07-30T00:36:10;15.05;;;8.45;;
77076;SDS011;66003;52.286;104.306;2023-07-30T00:38:36;8.93;;;5.38;;
77076;SDS011;66003;52.286;104.306;2023-07-30T00:41:03;10.27;;;7.28;;
77076;SDS011;66003;52.286;104.306;2023-07-30T00:43:29;12.02;;;5.53;;
77076;SDS011;66003;52.286;104.306;2023-07-30T00:45:55;7.13;;;4.32;;
77076;SDS011;66003;52.286;104.306;2023-07-30T00:48:21;10.80;;;4.78;;
77076;SDS011;66003;52.286;104.306;2023-07-30T00:50:47;10.95;;;5.70;;
77076;SDS011;66003;52.286;104.306;2023-07-30T00:53:14;8.85;;;5.25;;
77076;SDS011;66003;52.286;104.306;2023-07-30T00:55:42;8.30;;;5.20;;
77076;SDS011;66003;52.286;104.306;2023-07-30T00:58:09;10.52;;;5.70;;
77076;SDS011;66003;52.286;104.306;2023-07-30T01:00:35;9.98;;;6.00;;
77076;SDS011;66003;52.286;104.306;2023-07-30T01:03:02;12.10;;;5.25;;
77076;SDS011;66003;52.286;104.306;2023-07-30T01:05:29;9.90;;;5.80;;
77076;SDS011;66003;52.286;104.306;2023-07-30T01:07:56;13.73;;;6.55;;
77076;SDS011;66003;52.286;104.306;2023-07-30T01:10:22;12.05;;;6.35;;
77076;SDS011;66003;52.286;104.306;2023-07-30T01:12:48;11.07;;;5.93;;
77076;SDS011;66003;52.286;104.306;2023-07-30T01:15:16;12.38;;;8.65;;
77076;SDS011;66003;52.286;104.306;2023-07-30T01:17:42;12.90;;;7.63;;
77076;SDS011;66003;52.286;104.306;2023-07-30T01:20:10;12.38;;;6.25;;
77076;SDS011;66003;52.286;104.306;2023-07-30T01:22:36;9.73;;;5.78;;
77076;SDS011;66003;52.286;104.306;2023-07-30T01:25:02;9.20;;;6.18;;
77076;SDS011;66003;52.286;104.306;2023-07-30T01:27:31;11.35;;;6.75;;
77076;SDS011;66003;52.286;104.306;2023-07-30T01:35:07;13.25;;;6.35;;
77076;SDS011;66003;52.286;104.306;2023-07-30T01:37:35;16.42;;;7.60;;
77076;SDS011;66003;52.286;104.306;2023-07-30T01:40:04;20.73;;;9.02;;
77076;SDS011;66003;52.286;104.306;2023-07-30T01:42:32;13.65;;;7.05;;
77076;SDS011;66003;52.286;104.306;2023-07-30T01:44:58;13.63;;;7.47;;
77076;SDS011;66003;52.286;104.306;2023-07-30T01:47:24;12.93;;;7.47;;
77076;SDS011;66003;52.286;104.306;2023-07-30T01:49:50;14.13;;;6.80;;
77076;SDS011;66003;52.286;104.306;2023-07-30T01:52:16;12.02;;;7.10;;
77076;SDS011;66003;52.286;104.306;2023-07-30T01:54:42;9.10;;;5.28;;
77076;SDS011;66003;52.286;104.306;2023-07-30T01:57:08;11.35;;;7.22;;
77076;SDS011;66003;52.286;104.306;2023-07-30T01:59:35;9.65;;;6.10;;
77076;SDS011;66003;52.286;104.306;2023-07-30T02:02:01;9.30;;;5.82;;
77076;SDS011;66003;52.286;104.306;2023-07-30T02:04:27;9.85;;;5.70;;
77076;SDS011;66003;52.286;104.306;2023-07-30T02:06:53;12.40;;;6.18;;
77076;SDS011;66003;52.286;104.306;2023-07-30T02:09:19;9.38;;;6.53;;
77076;SDS011;66003;52.286;104.306;2023-07-30T02:11:47;10.43;;;5.82;;
77076;SDS011;66003;52.286;104.306;2023-07-30T02:14:13;12.07;;;7.03;;
77076;SDS011;66003;52.286;104.306;2023-07-30T02:16:39;14.70;;;7.43;;
77076;SDS011;66003;52.286;104.306;2023-07-30T02:19:05;11.18;;;6.38;;
77076;SDS011;66003;52.286;104.306;2023-07-30T02:21:31;13.02;;;8.93;;
77076;SDS011;66003;52.286;104.306;2023-07-30T02:24:01;11.52;;;7.75;;
77076;SDS011;66003;52.286;104.306;2023-07-30T02:26:28;11.90;;;8.20;;
77076;SDS011;66003;52.286;104.306;2023-07-30T02:28:54;14.60;;;8.85;;
77076;SDS011;66003;52.286;104.306;2023-07-30T02:31:20;12.93;;;10.00;;
77076;SDS011;66003;52.286;104.306;2023-07-30T02:33:46;14.77;;;9.18;;
77076;SDS011;66003;52.286;104.306;2023-07-30T02:36:12;14.02;;;10.35;;
77076;SDS011;66003;52.286;104.306;2023-07-30T02:38:38;15.10;;;10.60;;
77076;SDS011;66003;52.286;104.306;2023-07-30T02:41:05;14.23;;;10.10;;
77076;SDS011;66003;52.286;104.306;2023-07-30T02:43:31;14.68;;;8.95;;
77076;SDS011;66003;52.286;104.306;2023-07-30T02:45:57;13.30;;;9.57;;
77076;SDS011;66003;52.286;104.306;2023-07-30T02:48:23;14.95;;;10.13;;
77076;SDS011;66003;52.286;104.306;2023-07-30T02:50:49;13.20;;;9.63;;
77076;SDS011;66003;52.286;104.306;2023-07-30T02:53:15;16.10;;;10.27;;
77076;SDS011;66003;52.286;104.306;2023-07-30T02:55:41;13.10;;;9.55;;
77076;SDS011;66003;52.286;104.306;2023-07-30T02:58:07;13.68;;;9.85;;
77076;SDS011;66003;52.286;104.306;2023-07-30T03:00:33;15.15;;;9.70;;
77076;SDS011;66003;52.286;104.306;2023-07-30T03:03:00;14.70;;;10.13;;
77076;SDS011;66003;52.286;104.306;2023-07-30T03:05:26;14.05;;;11.18;;
77076;SDS011;66003;52.286;104.306;2023-07-30T03:07:53;14.30;;;11.43;;
77076;SDS011;66003;52.286;104.306;2023-07-30T03:10:19;19.73;;;11.00;;
77076;SDS011;66003;52.286;104.306;2023-07-30T03:12:45;18.58;;;10.50;;
77076;SDS011;66003;52.286;104.306;2023-07-30T03:15:11;17.17;;;11.27;;
77076;SDS011;66003;52.286;104.306;2023-07-30T03:17:37;17.58;;;10.82;;
77076;SDS011;66003;52.286;104.306;2023-07-30T03:20:03;14.38;;;10.57;;
77076;SDS011;66003;52.286;104.306;2023-07-30T03:22:30;16.02;;;10.68;;
77076;SDS011;66003;52.286;104.306;2023-07-30T03:24:56;17.00;;;11.25;;
77076;SDS011;66003;52.286;104.306;2023-07-30T03:27:22;15.35;;;10.20;;
77076;SDS011;66003;52.286;104.306;2023-07-30T03:29:49;15.63;;;10.15;;
77076;SDS011;66003;52.286;104.306;2023-07-30T03:32:15;17.60;;;10.13;;
77076;SDS011;66003;52.286;104.306;2023-07-30T03:34:41;14.80;;;10.02;;
77076;SDS011;66003;52.286;104.306;2023-07-30T03:37:07;14.70;;;11.00;;
77076;SDS011;66003;52.286;104.306;2023-07-30T03:39:33;13.18;;;9.98;;
77076;SDS011;66003;52.286;104.306;2023-07-30T03:41:59;11.30;;;8.43;;
77076;SDS011;66003;52.286;104.306;2023-07-30T03:44:26;12.45;;;8.85;;
77076;SDS011;66003;52.286;104.306;2023-07-30T03:46:52;14.25;;;10.48;;
77076;SDS011;66003;52.286;104.306;2023-07-30T03:49:18;11.73;;;8.43;;
77076;SDS011;66003;52.286;104.306;2023-07-30T03:51:44;11.35;;;7.45;;
77076;SDS011;66003;52.286;104.306;2023-07-30T03:54:11;14.50;;;8.90;;
77076;SDS011;66003;52.286;104.306;2023-07-30T03:56:37;12.15;;;9.00;;
77076;SDS011;66003;52.286;104.306;2023-07-30T03:59:03;11.50;;;7.93;;
77076;SDS011;66003;52.286;104.306;2023-07-30T04:01:29;11.77;;;8.20;;
77076;SDS011;66003;52.286;104.306;2023-07-30T04:03:56;15.45;;;10.38;;
77076;SDS011;66003;52.286;104.306;2023-07-30T04:06:22;14.57;;;7.82;;
77076;SDS011;66003;52.286;104.306;2023-07-30T04:08:48;12.00;;;9.60;;
77076;SDS011;66003;52.286;104.306;2023-07-30T04:11:14;12.57;;;8.55;;
77076;SDS011;66003;52.286;104.306;2023-07-30T04:13:41;11.00;;;7.80;;
77076;SDS011;66003;52.286;104.306;2023-07-30T04:16:07;11.65;;;8.35;;
77076;SDS011;66003;52.286;104.306;2023-07-30T04:18:33;12.32;;;8.80;;
77076;SDS011;66003;52.286;104.306;2023-07-30T04:21:00;13.00;;;8.25;;
77076;SDS011;66003;52.286;104.306;2023-07-30T04:23:26;10.65;;;9.60;;
77076;SDS011;66003;52.286;104.306;2023-07-30T04:25:52;12.77;;;9.38;;
77076;SDS011;66003;52.286;104.306;2023-07-30T04:28:18;13.88;;;9.52;;
77076;SDS011;66003;52.286;104.306;2023-07-30T04:30:44;15.07;;;9.05;;
77076;SDS011;66003;52.286;104.306;2023-07-30T04:33:12;11.20;;;8.60;;
77076;SDS011;66003;52.286;104.306;2023-07-30T04:35:40;15.23;;;9.65;;
77076;SDS011;66003;52.286;104.306;2023-07-30T04:38:06;36.10;;;14.80;;
77076;SDS011;66003;52.286;104.306;2023-07-30T04:40:32;12.10;;;8.85;;
77076;SDS011;66003;52.286;104.306;2023-07-30T04:42:59;11.93;;;10.23;;
77076;SDS011;66003;52.286;104.306;2023-07-30T04:45:25;13.05;;;9.45;;
77076;SDS011;66003;52.286;104.306;2023-07-30T04:47:51;11.65;;;8.15;;
77076;SDS011;66003;52.286;104.306;2023-07-30T04:50:18;10.70;;;8.95;;
77076;SDS011;66003;52.286;104.306;2023-07-30T04:52:44;11.60;;;8.48;;
77076;SDS011;66003;52.286;104.306;2023-07-30T04:55:10;12.60;;;8.68;;
77076;SDS011;66003;52.286;104.306;2023-07-30T04:57:36;16.80;;;9.88;;
77076;SDS011;66003;52.286;104.306;2023-07-30T05:00:02;15.38;;;10.05;;
77076;SDS011;66003;52.286;104.306;2023-07-30T05:02:31;16.30;;;10.48;;
77076;SDS011;66003;52.286;104.306;2023-07-30T05:04:58;15.73;;;9.90;;
77076;SDS011;66003;52.286;104.306;2023-07-30T05:07:24;15.90;;;10.60;;
77076;SDS011;66003;52.286;104.306;2023-07-30T05:09:50;17.60;;;10.82;;
77076;SDS011;66003;52.286;104.306;2023-07-30T05:12:16;15.93;;;11.18;;
77076;SDS011;66003;52.286;104.306;2023-07-30T05:14:42;18.25;;;12.50;;
77076;SDS011;66003;52.286;104.306;2023-07-30T05:17:08;16.35;;;10.98;;
77076;SDS011;66003;52.286;104.306;2023-07-30T05:19:34;16.15;;;11.18;;
77076;SDS011;66003;52.286;104.306;2023-07-30T05:22:01;17.60;;;11.30;;
77076;SDS011;66003;52.286;104.306;2023-07-30T05:24:27;16.60;;;11.20;;
77076;SDS011;66003;52.286;104.306;2023-07-30T05:26:54;17.77;;;10.88;;
77076;SDS011;66003;52.286;104.306;2023-07-30T05:29:20;18.15;;;11.70;;
77076;SDS011;66003;52.286;104.306;2023-07-30T05:31:46;17.63;;;10.45;;
77076;SDS011;66003;52.286;104.306;2023-07-30T05:34:12;15.93;;;11.48;;
77076;SDS011;66003;52.286;104.306;2023-07-30T05:36:38;21.88;;;11.15;;
77076;SDS011;66003;52.286;104.306;2023-07-30T05:39:04;17.70;;;13.27;;
77076;SDS011;66003;52.286;104.306;2023-07-30T05:41:30;25.65;;;12.00;;
77076;SDS011;66003;52.286;104.306;2023-07-30T05:43:56;16.70;;;12.10;;
77076;SDS011;66003;52.286;104.306;2023-07-30T05:46:23;18.05;;;11.27;;
77076;SDS011;66003;52.286;104.306;2023-07-30T05:48:49;15.38;;;10.60;;
77076;SDS011;66003;52.286;104.306;2023-07-30T05:51:15;16.25;;;12.15;;
77076;SDS011;66003;52.286;104.306;2023-07-30T05:53:42;16.48;;;10.68;;
77076;SDS011;66003;52.286;104.306;2023-07-30T05:56:08;19.98;;;11.57;;
77076;SDS011;66003;52.286;104.306;2023-07-30T05:58:34;21.50;;;13.27;;
77076;SDS011;66003;52.286;104.306;2023-07-30T06:01:00;16.08;;;10.90;;
77076;SDS011;66003;52.286;104.306;2023-07-30T06:03:27;21.33;;;11.45;;
77076;SDS011;66003;52.286;104.306;2023-07-30T06:05:53;17.30;;;11.02;;
77076;SDS011;66003;52.286;104.306;2023-07-30T06:08:19;17.30;;;11.95;;
77076;SDS011;66003;52.286;104.306;2023-07-30T06:10:45;16.88;;;11.40;;
77076;SDS011;66003;52.286;104.306;2023-07-30T06:13:12;15.13;;;11.73;;
77076;SDS011;66003;52.286;104.306;2023-07-30T06:15:38;15.43;;;11.80;;
77076;SDS011;66003;52.286;104.306;2023-07-30T06:18:04;22.02;;;12.18;;
77076;SDS011;66003;52.286;104.306;2023-07-30T06:20:30;17.00;;;12.73;;
77076;SDS011;66003;52.286;104.306;2023-07-30T06:22:57;16.63;;;13.63;;
77076;SDS011;66003;52.286;104.306;2023-07-30T06:25:23;19.17;;;12.52;;
77076;SDS011;66003;52.286;104.306;2023-07-30T06:27:49;15.13;;;12.32;;
77076;SDS011;66003;52.286;104.306;2023-07-30T06:30:15;17.30;;;12.90;;
77076;SDS011;66003;52.286;104.306;2023-07-30T06:32:41;16.45;;;12.40;;
77076;SDS011;66003;52.286;104.306;2023-07-30T06:35:07;23.58;;;13.50;;
77076;SDS011;66003;52.286;104.306;2023-07-30T06:37:34;21.63;;;12.65;;
77076;SDS011;66003;52.286;104.306;2023-07-30T06:40:00;21.73;;;14.50;;
77076;SDS011;66003;52.286;104.306;2023-07-30T06:42:29;21.92;;;13.23;;
77076;SDS011;66003;52.286;104.306;2023-07-30T06:44:55;17.60;;;12.07;;
77076;SDS011;66003;52.286;104.306;2023-07-30T06:47:21;21.00;;;12.60;;
77076;SDS011;66003;52.286;104.306;2023-07-30T06:49:48;16.25;;;12.38;;
77076;SDS011;66003;52.286;104.306;2023-07-30T06:52:14;19.98;;;13.38;;
77076;SDS011;66003;52.286;104.306;2023-07-30T06:54:40;20.17;;;12.45;;
77076;SDS011;66003;52.286;104.306;2023-07-30T06:57:06;17.75;;;13.15;;
77076;SDS011;66003;52.286;104.306;2023-07-30T06:59:33;21.08;;;12.32;;
77076;SDS011;66003;52.286;104.306;2023-07-30T07:01:59;20.13;;;14.52;;
77076;SDS011;66003;52.286;104.306;2023-07-30T07:04:27;16.65;;;12.82;;
77076;SDS011;66003;52.286;104.306;2023-07-30T07:06:53;18.55;;;11.98;;
77076;SDS011;66003;52.286;104.306;2023-07-30T07:09:19;16.42;;;12.30;;
77076;SDS011;66003;52.286;104.306;2023-07-30T07:11:45;22.13;;;13.73;;
77076;SDS011;66003;52.286;104.306;2023-07-30T07:14:11;17.15;;;12.68;;
77076;SDS011;66003;52.286;104.306;2023-07-30T07:16:38;18.05;;;13.57;;
77076;SDS011;66003;52.286;104.306;2023-07-30T07:19:04;19.02;;;11.82;;
77076;SDS011;66003;52.286;104.306;2023-07-30T07:21:30;18.83;;;12.55;;
77076;SDS011;66003;52.286;104.306;2023-07-30T07:23:56;25.77;;;14.15;;
77076;SDS011;66003;52.286;104.306;2023-07-30T07:26:23;21.80;;;14.43;;
77076;SDS011;66003;52.286;104.306;2023-07-30T07:28:49;23.23;;;13.02;;
77076;SDS011;66003;52.286;104.306;2023-07-30T07:31:15;20.23;;;12.88;;
77076;SDS011;66003;52.286;104.306;2023-07-30T07:33:41;22.98;;;16.77;;
77076;SDS011;66003;52.286;104.306;2023-07-30T07:36:09;16.90;;;12.77;;
77076;SDS011;66003;52.286;104.306;2023-07-30T07:38:35;21.27;;;13.73;;
77076;SDS011;66003;52.286;104.306;2023-07-30T07:41:01;16.45;;;12.82;;
77076;SDS011;66003;52.286;104.306;2023-07-30T07:43:28;19.13;;;13.30;;
77076;SDS011;66003;52.286;104.306;2023-07-30T07:45:54;17.48;;;12.75;;
77076;SDS011;66003;52.286;104.306;2023-07-30T07:48:20;20.90;;;13.25;;
77076;SDS011;66003;52.286;104.306;2023-07-30T07:50:46;17.67;;;11.73;;
77076;SDS011;66003;52.286;104.306;2023-07-30T07:53:12;17.35;;;12.55;;
77076;SDS011;66003;52.286;104.306;2023-07-30T07:55:38;15.85;;;12.23;;
77076;SDS011;66003;52.286;104.306;2023-07-30T07:58:05;16.60;;;13.32;;
77076;SDS011;66003;52.286;104.306;2023-07-30T08:00:31;18.88;;;10.68;;
77076;SDS011;66003;52.286;104.306;2023-07-30T08:02:58;15.85;;;11.10;;
77076;SDS011;66003;52.286;104.306;2023-07-30T08:05:26;14.95;;;10.98;;
77076;SDS011;66003;52.286;104.306;2023-07-30T08:07:52;14.07;;;9.73;;
77076;SDS011;66003;52.286;104.306;2023-07-30T08:10:19;16.70;;;11.63;;
77076;SDS011;66003;52.286;104.306;2023-07-30T08:12:45;14.68;;;9.70;;
77076;SDS011;66003;52.286;104.306;2023-07-30T08:15:14;14.60;;;9.95;;
77076;SDS011;66003;52.286;104.306;2023-07-30T08:17:41;12.93;;;9.18;;
77076;SDS011;66003;52.286;104.306;2023-07-30T08:20:07;15.65;;;10.27;;
77076;SDS011;66003;52.286;104.306;2023-07-30T08:22:34;15.30;;;10.35;;
77076;SDS011;66003;52.286;104.306;2023-07-30T08:25:01;13.98;;;10.18;;
77076;SDS011;66003;52.286;104.306;2023-07-30T08:27:30;12.85;;;8.10;;
77076;SDS011;66003;52.286;104.306;2023-07-30T08:29:56;15.73;;;9.15;;
77076;SDS011;66003;52.286;104.306;2023-07-30T08:32:22;13.50;;;10.38;;
77076;SDS011;66003;52.286;104.306;2023-07-30T08:34:48;14.45;;;11.73;;
77076;SDS011;66003;52.286;104.306;2023-07-30T08:37:14;14.98;;;10.77;;
77076;SDS011;66003;52.286;104.306;2023-07-30T08:39:41;15.32;;;11.10;;
77076;SDS011;66003;52.286;104.306;2023-07-30T08:42:07;16.60;;;10.20;;
77076;SDS011;66003;52.286;104.306;2023-07-30T08:44:33;15.70;;;10.35;;
77076;SDS011;66003;52.286;104.306;2023-07-30T08:47:00;14.90;;;10.57;;
77076;SDS011;66003;52.286;104.306;2023-07-30T08:49:26;17.05;;;10.88;;
77076;SDS011;66003;52.286;104.306;2023-07-30T08:51:58;15.00;;;11.02;;
77076;SDS011;66003;52.286;104.306;2023-07-30T08:54:26;14.85;;;10.00;;
77076;SDS011;66003;52.286;104.306;2023-07-30T08:56:55;17.52;;;9.50;;
77076;SDS011;66003;52.286;104.306;2023-07-30T08:59:23;19.13;;;10.15;;
77076;SDS011;66003;52.286;104.306;2023-07-30T09:01:52;14.52;;;10.20;;
77076;SDS011;66003;52.286;104.306;2023-07-30T09:04:20;16.60;;;11.52;;
77076;SDS011;66003;52.286;104.306;2023-07-30T09:06:49;14.18;;;10.13;;
77076;SDS011;66003;52.286;104.306;2023-07-30T09:09:16;15.18;;;9.63;;
77076;SDS011;66003;52.286;104.306;2023-07-30T09:11:42;14.90;;;9.27;;
77076;SDS011;66003;52.286;104.306;2023-07-30T09:14:08;13.10;;;9.13;;
77076;SDS011;66003;52.286;104.306;2023-07-30T09:16:35;13.93;;;9.23;;
77076;SDS011;66003;52.286;104.306;2023-07-30T09:19:01;13.30;;;9.77;;
77076;SDS011;66003;52.286;104.306;2023-07-30T09:21:32;13.13;;;8.07;;
77076;SDS011;66003;52.286;104.306;2023-07-30T09:24:02;11.55;;;7.78;;
77076;SDS011;66003;52.286;104.306;2023-07-30T09:26:45;11.48;;;8.27;;
77076;SDS011;66003;52.286;104.306;2023-07-30T09:29:12;10.45;;;7.63;;
77076;SDS011;66003;52.286;104.306;2023-07-30T09:31:48;12.45;;;7.70;;
77076;SDS011;66003;52.286;104.306;2023-07-30T09:34:23;11.73;;;8.75;;
77076;SDS011;66003;52.286;104.306;2023-07-30T09:36:50;12.35;;;8.00;;
77076;SDS011;66003;52.286;104.306;2023-07-30T09:39:24;11.38;;;7.05;;
77076;SDS011;66003;52.286;104.306;2023-07-30T09:41:52;12.60;;;8.52;;
77076;SDS011;66003;52.286;104.306;2023-07-30T09:44:25;11.43;;;8.00;;
77076;SDS011;66003;52.286;104.306;2023-07-30T09:46:52;10.38;;;7.95;;
77076;SDS011;66003;52.286;104.306;2023-07-30T09:49:19;14.65;;;9.55;;
77076;SDS011;66003;52.286;104.306;2023-07-30T09:51:47;12.88;;;8.68;;
77076;SDS011;66003;52.286;104.306;2023-07-30T09:54:14;14.75;;;8.50;;
77076;SDS011;66003;52.286;104.306;2023-07-30T09:56:41;15.27;;;10.85;;
77076;SDS011;66003;52.286;104.306;2023-07-30T09:59:08;12.93;;;9.73;;
77076;SDS011;66003;52.286;104.306;2023-07-30T10:01:41;11.80;;;9.25;;
77076;SDS011;66003;52.286;104.306;2023-07-30T10:04:10;17.83;;;9.85;;
77076;SDS011;66003;52.286;104.306;2023-07-30T10:06:41;16.23;;;9.60;;
77076;SDS011;66003;52.286;104.306;2023-07-30T10:09:12;16.92;;;10.13;;
77076;SDS011;66003;52.286;104.306;2023-07-30T10:11:39;16.65;;;10.63;;
77076;SDS011;66003;52.286;104.306;2023-07-30T10:14:08;18.92;;;10.02;;
77076;SDS011;66003;52.286;104.306;2023-07-30T10:16:35;13.93;;;10.63;;
77076;SDS011;66003;52.286;104.306;2023-07-30T10:19:01;20.48;;;11.27;;
77076;SDS011;66003;52.286;104.306;2023-07-30T10:21:27;16.58;;;10.48;;
77076;SDS011;66003;52.286;104.306;2023-07-30T10:24:01;15.43;;;10.25;;
77076;SDS011;66003;52.286;104.306;2023-07-30T10:26:29;16.90;;;12.07;;
77076;SDS011;66003;52.286;104.306;2023-07-30T10:29:12;12.45;;;9.45;;
77076;SDS011;66003;52.286;104.306;2023-07-30T10:31:52;17.25;;;9.05;;
77076;SDS011;66003;52.286;104.306;2023-07-30T10:34:27;14.30;;;9.68;;
77076;SDS011;66003;52.286;104.306;2023-07-30T10:37:10;19.35;;;9.68;;
77076;SDS011;66003;52.286;104.306;2023-07-30T10:39:36;15.93;;;11.45;;
77076;SDS011;66003;52.286;104.306;2023-07-30T10:42:02;19.77;;;12.77;;
77076;SDS011;66003;52.286;104.306;2023-07-30T10:44:30;16.45;;;11.85;;
77076;SDS011;66003;52.286;104.306;2023-07-30T10:46:58;14.50;;;10.48;;
77076;SDS011;66003;52.286;104.306;2023-07-30T10:49:25;15.43;;;10.23;;
77076;SDS011;66003;52.286;104.306;2023-07-30T10:51:52;16.92;;;10.15;;
77076;SDS011;66003;52.286;104.306;2023-07-30T10:54:19;19.25;;;11.05;;
77076;SDS011;66003;52.286;104.306;2023-07-30T10:56:46;20.85;;;13.00;;
77076;SDS011;66003;52.286;104.306;2023-07-30T10:59:13;15.48;;;10.27;;
77076;SDS011;66003;52.286;104.306;2023-07-30T11:01:41;18.60;;;10.40;;
77076;SDS011;66003;52.286;104.306;2023-07-30T11:04:13;16.85;;;10.20;;
77076;SDS011;66003;52.286;104.306;2023-07-30T11:06:46;15.00;;;9.70;;
77076;SDS011;66003;52.286;104.306;2023-07-30T11:09:21;19.10;;;10.13;;
77076;SDS011;66003;52.286;104.306;2023-07-30T11:11:52;15.30;;;9.55;;
77076;SDS011;66003;52.286;104.306;2023-07-30T11:14:20;13.77;;;8.80;;
77076;SDS011;66003;52.286;104.306;2023-07-30T11:16:52;14.80;;;9.95;;
77076;SDS011;66003;52.286;104.306;2023-07-30T11:19:19;19.40;;;10.35;;
77076;SDS011;66003;52.286;104.306;2023-07-30T11:21:46;19.40;;;9.88;;
77076;SDS011;66003;52.286;104.306;2023-07-30T11:24:13;18.42;;;11.23;;
77076;SDS011;66003;52.286;104.306;2023-07-30T11:26:39;17.00;;;10.45;;
77076;SDS011;66003;52.286;104.306;2023-07-30T11:29:18;16.75;;;11.45;;
77076;SDS011;66003;52.286;104.306;2023-07-30T11:31:46;18.38;;;10.52;;
77076;SDS011;66003;52.286;104.306;2023-07-30T11:34:13;16.85;;;11.02;;
77076;SDS011;66003;52.286;104.306;2023-07-30T11:36:41;18.63;;;11.02;;
77076;SDS011;66003;52.286;104.306;2023-07-30T11:39:08;21.55;;;12.52;;
77076;SDS011;66003;52.286;104.306;2023-07-30T11:41:35;19.23;;;11.07;;
77076;SDS011;66003;52.286;104.306;2023-07-30T11:44:04;20.77;;;12.20;;
77076;SDS011;66003;52.286;104.306;2023-07-30T11:46:30;16.35;;;11.50;;
77076;SDS011;66003;52.286;104.306;2023-07-30T11:49:12;21.42;;;14.05;;
77076;SDS011;66003;52.286;104.306;2023-07-30T11:51:40;17.38;;;12.13;;
77076;SDS011;66003;52.286;104.306;2023-07-30T11:54:07;20.25;;;12.35;;
77076;SDS011;66003;52.286;104.306;2023-07-30T11:56:43;17.73;;;11.57;;
77076;SDS011;66003;52.286;104.306;2023-07-30T11:59:09;16.85;;;10.30;;
77076;SDS011;66003;52.286;104.306;2023-07-30T12:01:36;15.52;;;9.98;;
77076;SDS011;66003;52.286;104.306;2023-07-30T12:04:03;16.42;;;10.25;;
77076;SDS011;66003;52.286;104.306;2023-07-30T12:06:40;15.88;;;10.32;;
77076;SDS011;66003;52.286;104.306;2023-07-30T12:09:24;17.77;;;10.75;;
77076;SDS011;66003;52.286;104.306;2023-07-30T12:14:24;14.68;;;10.45;;
77076;SDS011;66003;52.286;104.306;2023-07-30T12:16:56;19.73;;;11.05;;
77076;SDS011;66003;52.286;104.306;2023-07-30T12:19:22;16.35;;;11.80;;
77076;SDS011;66003;52.286;104.306;2023-07-30T12:21:48;17.52;;;10.45;;
77076;SDS011;66003;52.286;104.306;2023-07-30T12:24:14;20.13;;;10.60;;
77076;SDS011;66003;52.286;104.306;2023-07-30T12:26:41;17.55;;;12.00;;
77076;SDS011;66003;52.286;104.306;2023-07-30T12:29:07;19.27;;;13.45;;
77076;SDS011;66003;52.286;104.306;2023-07-30T12:31:33;17.70;;;12.07;;
77076;SDS011;66003;52.286;104.306;2023-07-30T12:33:59;17.42;;;13.30;;
77076;SDS011;66003;52.286;104.306;2023-07-30T12:36:25;19.52;;;13.10;;
77076;SDS011;66003;52.286;104.306;2023-07-30T12:38:52;22.40;;;13.02;;
77076;SDS011;66003;52.286;104.306;2023-07-30T12:41:20;18.48;;;12.02;;
77076;SDS011;66003;52.286;104.306;2023-07-30T12:43:52;15.35;;;11.30;;
77076;SDS011;66003;52.286;104.306;2023-07-30T12:46:19;21.88;;;11.75;;
77076;SDS011;66003;52.286;104.306;2023-07-30T12:48:46;15.98;;;11.82;;
77076;SDS011;66003;52.286;104.306;2023-07-30T12:51:12;20.00;;;12.68;;
77076;SDS011;66003;52.286;104.306;2023-07-30T12:53:38;19.55;;;11.38;;
77076;SDS011;66003;52.286;104.306;2023-07-30T12:56:04;15.38;;;11.52;;
77076;SDS011;66003;52.286;104.306;2023-07-30T12:58:30;20.35;;;13.63;;
77076;SDS011;66003;52.286;104.306;2023-07-30T13:00:57;16.70;;;11.02;;
77076;SDS011;66003;52.286;104.306;2023-07-30T13:03:23;19.23;;;11.38;;
77076;SDS011;66003;52.286;104.306;2023-07-30T13:05:49;18.23;;;10.70;;
77076;SDS011;66003;52.286;104.306;2023-07-30T13:08:15;16.25;;;11.00;;
77076;SDS011;66003;52.286;104.306;2023-07-30T13:10:41;17.67;;;11.40;;
77076;SDS011;66003;52.286;104.306;2023-07-30T13:13:07;18.77;;;14.00;;
77076;SDS011;66003;52.286;104.306;2023-07-30T13:15:33;19.30;;;11.90;;
77076;SDS011;66003;52.286;104.306;2023-07-30T13:17:59;17.67;;;11.23;;
77076;SDS011;66003;52.286;104.306;2023-07-30T13:20:26;19.95;;;11.15;;
77076;SDS011;66003;52.286;104.306;2023-07-30T13:22:52;15.70;;;10.85;;
77076;SDS011;66003;52.286;104.306;2023-07-30T13:25:19;15.65;;;10.23;;
77076;SDS011;66003;52.286;104.306;2023-07-30T13:27:45;19.52;;;11.40;;
77076;SDS011;66003;52.286;104.306;2023-07-30T13:30:12;15.95;;;11.27;;
77076;SDS011;66003;52.286;104.306;2023-07-30T13:32:38;16.63;;;10.77;;
77076;SDS011;66003;52.286;104.306;2023-07-30T13:35:04;15.77;;;11.52;;
77076;SDS011;66003;52.286;104.306;2023-07-30T13:37:30;16.73;;;10.75;;
77076;SDS011;66003;52.286;104.306;2023-07-30T13:39:57;17.05;;;10.88;;
77076;SDS011;66003;52.286;104.306;2023-07-30T13:42:23;15.73;;;10.80;;
